Time;durP1;ratioP1;P1;durP2;ratioP2;P2;SDS_P1;SDS_P2;PMS_P1;PMS_P2;Temp;Humidity;BMP_temperature;BMP_pressure;BME280_temperature;BME280_humidity;BME280_pressure;Samples;Min_cycle;Max_cycle;Signal;HPM_P1;HPM_P2
2022/09/22 00:00:57;;;;;;;7.10;3.10;;;9.20;99.90;;;;;;5018826;28;20431;-55
2022/09/22 00:03:24;;;;;;;5.32;2.30;;;9.10;99.90;;;;;;5021443;28;20108;-55
2022/09/22 00:05:56;;;;;;;8.02;2.58;;;9.20;99.90;;;;;;5019745;28;20029;-57
2022/09/22 00:08:22;;;;;;;7.07;2.50;;;9.20;99.90;;;;;;5019314;28;20367;-57
2022/09/22 00:10:58;;;;;;;5.78;2.15;;;9.20;99.90;;;;;;5019829;28;20093;-58
2022/09/22 00:13:23;;;;;;;6.28;2.83;;;9.20;99.90;;;;;;5016331;28;20022;-57
2022/09/22 00:15:49;;;;;;;7.10;2.70;;;9.10;99.90;;;;;;5020477;28;20026;-57
2022/09/22 00:18:14;;;;;;;6.28;2.45;;;9.10;99.90;;;;;;5018753;28;20029;-56
2022/09/22 00:20:40;;;;;;;9.07;3.15;;;9.10;99.90;;;;;;5018736;28;20025;-57
2022/09/22 00:23:05;;;;;;;3.92;2.08;;;9.10;99.90;;;;;;5018026;28;20498;-57
2022/09/22 00:25:30;;;;;;;5.10;2.20;;;9.00;99.90;;;;;;5018744;28;20104;-57
2022/09/22 00:27:56;;;;;;;3.05;1.98;;;8.90;99.90;;;;;;5020637;28;20030;-57
2022/09/22 00:30:23;;;;;;;4.63;2.45;;;8.90;99.90;;;;;;5021146;28;20435;-57
2022/09/22 00:32:48;;;;;;;3.03;2.47;;;8.90;99.90;;;;;;5017703;28;20071;-57
2022/09/22 00:35:14;;;;;;;10.55;2.15;;;8.80;99.90;;;;;;5016849;28;20022;-57
2022/09/22 00:37:39;;;;;;;4.20;2.35;;;8.80;99.90;;;;;;5020597;28;20025;-57
2022/09/22 00:40:05;;;;;;;3.60;2.28;;;8.70;99.90;;;;;;5023221;28;20037;-57
2022/09/22 00:42:31;;;;;;;3.60;2.17;;;8.70;99.90;;;;;;5020043;28;20455;-57
2022/09/22 00:44:56;;;;;;;5.00;2.22;;;8.70;99.90;;;;;;5017603;28;20120;-56
2022/09/22 00:47:32;;;;;;;4.43;2.80;;;8.70;99.90;;;;;;5020748;28;20161;-56
2022/09/22 00:50:14;;;;;;;5.20;2.45;;;8.70;99.90;;;;;;5021008;28;20410;-56
2022/09/22 00:52:47;;;;;;;7.82;2.80;;;8.70;99.90;;;;;;5020925;28;20414;-56
2022/09/22 00:55:22;;;;;;;3.33;2.35;;;8.60;99.90;;;;;;5018971;28;20032;-56
2022/09/22 00:57:50;;;;;;;5.90;2.60;;;8.60;99.90;;;;;;5018749;28;20030;-56
2022/09/22 01:00:16;;;;;;;5.10;2.35;;;8.60;99.90;;;;;;5018501;28;20514;-56
2022/09/22 01:02:47;;;;;;;3.75;2.17;;;8.60;99.90;;;;;;5017553;28;20381;-56
2022/09/22 01:05:13;;;;;;;5.57;2.70;;;8.50;99.90;;;;;;5016531;28;20053;-56
2022/09/22 01:07:38;;;;;;;4.13;2.47;;;8.50;99.90;;;;;;5017225;28;20171;-56
2022/09/22 01:10:04;;;;;;;3.70;2.28;;;8.50;99.90;;;;;;5017230;28;20236;-56
2022/09/22 01:12:31;;;;;;;6.65;2.30;;;8.40;99.90;;;;;;5018286;28;20041;-56
2022/09/22 01:15:23;;;;;;;3.33;2.10;;;8.40;99.90;;;;;;5018177;28;20025;-56
2022/09/22 01:18:16;;;;;;;3.40;2.10;;;8.30;99.90;;;;;;5018192;28;20498;-56
2022/09/22 01:21:19;;;;;;;12.07;2.30;;;8.20;99.90;;;;;;5017076;28;20591;-56
2022/09/22 01:24:09;;;;;;;5.03;2.67;;;8.10;99.90;;;;;;5019750;28;20441;-56
2022/09/22 01:27:11;;;;;;;4.53;2.60;;;8.20;99.90;;;;;;5019531;28;20032;-56
2022/09/22 01:30:05;;;;;;;5.57;2.40;;;8.20;99.90;;;;;;5019500;28;20492;-56
2022/09/22 01:32:37;;;;;;;4.20;3.00;;;8.20;99.90;;;;;;5015289;28;20033;-56
2022/09/22 01:35:20;;;;;;;6.75;3.78;;;8.20;99.90;;;;;;5017597;28;20097;-57
2022/09/22 01:38:01;;;;;;;4.13;3.20;;;8.20;99.90;;;;;;5015052;28;20442;-57
2022/09/22 01:40:49;;;;;;;6.22;2.80;;;8.30;99.90;;;;;;5020933;28;20021;-57
2022/09/22 01:43:33;;;;;;;6.18;3.05;;;8.30;99.90;;;;;;5021937;28;20036;-57
2022/09/22 01:46:03;;;;;;;8.02;3.15;;;8.40;99.90;;;;;;5020902;28;20030;-57
2022/09/22 01:48:32;;;;;;;9.85;3.08;;;8.40;99.90;;;;;;5010767;28;20049;-57
2022/09/22 01:51:04;;;;;;;7.63;3.28;;;8.40;99.90;;;;;;5025156;28;20046;-56
2022/09/22 01:53:35;;;;;;;5.05;2.78;;;8.50;99.90;;;;;;5016670;28;20052;-57
2022/09/22 01:56:03;;;;;;;;;;;8.50;99.90;;;;;;5017118;28;20100;-57
2022/09/22 01:58:33;;;;;;;7.97;3.33;;;8.60;99.90;;;;;;5017526;28;20334;-57
2022/09/22 02:01:14;;;;;;;9.98;3.20;;;8.60;99.90;;;;;;5016040;28;20498;-57
2022/09/22 02:04:08;;;;;;;8.40;3.08;;;8.60;99.90;;;;;;5012126;28;20508;-57
2022/09/22 02:06:42;;;;;;;6.97;3.33;;;8.60;99.90;;;;;;5011942;28;20049;-57
2022/09/22 02:09:15;;;;;;;8.68;3.47;;;8.60;99.90;;;;;;5011002;28;20101;-57
2022/09/22 02:11:41;;;;;;;6.30;3.45;;;8.70;99.90;;;;;;5022424;28;20215;-57
2022/09/22 02:14:07;;;;;;;5.72;3.17;;;8.80;99.90;;;;;;5020052;28;20105;-57
2022/09/22 02:16:33;;;;;;;6.75;3.38;;;8.80;99.90;;;;;;5010628;28;20595;-57
2022/09/22 02:19:11;;;;;;;6.72;3.42;;;8.80;99.90;;;;;;5008891;28;20076;-57
2022/09/22 02:21:39;;;;;;;3.85;3.33;;;8.80;99.90;;;;;;5019553;28;20368;-57
2022/09/22 02:24:05;;;;;;;5.00;3.13;;;8.80;99.90;;;;;;5014144;28;20014;-57
2022/09/22 02:26:34;;;;;;;4.88;3.08;;;8.80;99.90;;;;;;5020220;28;20116;-57
2022/09/22 02:29:07;;;;;;;10.00;3.92;;;8.80;99.90;;;;;;5020026;28;20032;-57
2022/09/22 02:31:36;;;;;;;5.28;2.90;;;8.80;99.90;;;;;;5016899;28;20114;-57
2022/09/22 02:34:03;;;;;;;5.82;3.13;;;8.80;99.90;;;;;;5017209;28;20033;-57
2022/09/22 02:36:53;;;;;;;7.43;3.50;;;8.80;99.90;;;;;;5022346;28;20433;-57
2022/09/22 02:39:23;;;;;;;5.47;3.30;;;8.80;99.90;;;;;;5022803;28;20371;-57
2022/09/22 02:41:57;;;;;;;8.93;3.50;;;8.80;99.90;;;;;;5021261;28;20080;-57
2022/09/22 02:44:40;;;;;;;8.70;4.00;;;8.80;99.90;;;;;;5022398;28;20265;-57
2022/09/22 02:47:11;;;;;;;6.47;4.35;;;8.90;99.90;;;;;;5028714;28;20112;-56
2022/09/22 02:49:38;;;;;;;6.22;3.90;;;8.90;99.90;;;;;;5016794;28;20141;-55
2022/09/22 02:52:09;;;;;;;8.57;4.18;;;8.90;99.90;;;;;;5015136;28;20480;-56
2022/09/22 02:54:35;;;;;;;7.90;4.13;;;8.90;99.90;;;;;;5016379;28;20037;-58
2022/09/22 02:57:01;;;;;;;6.47;4.00;;;9.00;99.90;;;;;;5015362;28;20036;-56
2022/09/22 02:59:26;;;;;;;7.10;3.60;;;9.00;99.90;;;;;;5027542;28;20144;-56
2022/09/22 03:01:52;;;;;;;8.40;4.07;;;9.00;99.90;;;;;;5028969;28;20032;-55
2022/09/22 03:04:17;;;;;;;5.57;3.58;;;9.00;99.90;;;;;;5026957;28;20431;-56
2022/09/22 03:06:42;;;;;;;7.05;3.97;;;9.00;99.90;;;;;;5023064;28;20100;-56
2022/09/22 03:09:08;;;;;;;7.50;4.63;;;9.00;99.90;;;;;;5020615;28;20026;-56
2022/09/22 03:11:33;;;;;;;6.25;3.60;;;9.00;99.90;;;;;;5021193;28;20028;-56
2022/09/22 03:13:59;;;;;;;7.03;3.78;;;9.00;99.90;;;;;;5019592;28;20036;-56
2022/09/22 03:16:24;;;;;;;5.78;3.47;;;9.00;99.90;;;;;;5022088;28;20612;-56
2022/09/22 03:18:50;;;;;;;6.43;4.20;;;9.10;99.90;;;;;;5019271;28;20032;-56
2022/09/22 03:21:15;;;;;;;9.00;4.68;;;9.10;99.90;;;;;;5021581;28;20042;-56
2022/09/22 03:23:41;;;;;;;7.97;4.25;;;9.10;99.90;;;;;;5019141;28;20029;-56
2022/09/22 03:26:06;;;;;;;4.30;3.90;;;9.10;99.90;;;;;;5021688;28;20075;-56
2022/09/22 03:28:32;;;;;;;8.10;3.95;;;9.10;99.90;;;;;;5020814;28;20495;-56
2022/09/22 03:30:57;;;;;;;5.43;4.03;;;9.00;99.90;;;;;;5020149;28;20026;-56
2022/09/22 03:33:23;;;;;;;4.85;3.60;;;9.00;99.90;;;;;;5020932;28;20491;-56
2022/09/22 03:35:48;;;;;;;5.60;3.55;;;9.00;99.90;;;;;;5019754;28;20345;-56
2022/09/22 03:38:14;;;;;;;4.30;3.53;;;8.90;99.90;;;;;;5019032;28;20024;-56
2022/09/22 03:40:39;;;;;;;12.52;4.78;;;8.90;99.90;;;;;;5021284;28;20037;-56
2022/09/22 03:43:05;;;;;;;13.32;4.80;;;8.90;99.90;;;;;;5017669;28;20116;-57
2022/09/22 03:45:30;;;;;;;7.57;3.75;;;8.90;99.90;;;;;;5020449;28;20022;-56
2022/09/22 03:47:55;;;;;;;9.07;4.65;;;8.90;99.90;;;;;;5020711;28;20481;-56
2022/09/22 03:50:21;;;;;;;7.30;4.22;;;8.90;99.90;;;;;;5019238;28;20073;-56
2022/09/22 03:52:46;;;;;;;5.88;3.92;;;8.90;99.90;;;;;;5020610;28;20021;-56
2022/09/22 03:55:12;;;;;;;7.95;4.03;;;8.90;99.90;;;;;;5019936;28;20030;-56
2022/09/22 03:57:38;;;;;;;10.40;3.78;;;8.80;99.90;;;;;;5019324;28;20037;-56
2022/09/22 04:00:05;;;;;;;8.63;3.90;;;8.80;99.90;;;;;;5021204;28;20460;-56
2022/09/22 04:02:30;;;;;;;6.97;3.92;;;8.80;99.90;;;;;;5019365;28;20080;-57
2022/09/22 04:04:55;;;;;;;8.90;3.25;;;8.70;99.90;;;;;;5019823;28;20025;-56
2022/09/22 04:07:21;;;;;;;9.07;3.72;;;8.70;99.90;;;;;;5021156;28;20025;-55
2022/09/22 04:09:46;;;;;;;5.60;3.35;;;8.70;99.90;;;;;;5018922;28;20052;-55
2022/09/22 04:12:12;;;;;;;7.43;2.90;;;8.60;99.90;;;;;;5019888;28;20037;-55
2022/09/22 04:14:37;;;;;;;11.32;3.90;;;8.50;99.90;;;;;;5020122;28;20018;-55
2022/09/22 04:17:04;;;;;;;8.73;4.00;;;8.50;99.90;;;;;;5021307;28;20021;-56
2022/09/22 04:19:31;;;;;;;5.28;3.20;;;8.40;99.90;;;;;;5017968;28;20022;-56
2022/09/22 04:21:57;;;;;;;6.65;3.53;;;8.40;99.90;;;;;;5018307;28;20018;-57
2022/09/22 04:24:23;;;;;;;4.60;3.55;;;8.30;99.90;;;;;;5024746;28;20032;-57
2022/09/22 04:26:48;;;;;;;6.28;3.97;;;8.30;99.90;;;;;;5012950;28;20049;-57
2022/09/22 04:29:14;;;;;;;8.27;4.00;;;8.20;99.90;;;;;;5015025;28;20053;-57
2022/09/22 04:31:39;;;;;;;9.90;4.20;;;8.10;99.90;;;;;;5020315;28;20022;-56
2022/09/22 04:34:05;;;;;;;6.18;3.80;;;8.10;99.90;;;;;;5023913;28;20022;-56
2022/09/22 04:36:30;;;;;;;6.68;3.65;;;8.10;99.90;;;;;;5014684;28;20018;-56
2022/09/22 04:38:56;;;;;;;9.43;4.00;;;8.10;99.90;;;;;;5017653;28;20381;-57
2022/09/22 04:41:21;;;;;;;8.73;3.30;;;8.10;99.90;;;;;;5019562;28;20112;-56
2022/09/22 04:43:47;;;;;;;7.65;3.47;;;8.00;99.90;;;;;;5020196;28;20029;-56
2022/09/22 04:46:12;;;;;;;10.23;4.22;;;8.00;99.90;;;;;;5019159;28;20451;-56
2022/09/22 04:48:38;;;;;;;9.63;3.97;;;7.90;99.90;;;;;;5020191;28;20059;-57
2022/09/22 04:51:03;;;;;;;9.05;3.47;;;7.90;99.90;;;;;;5017793;28;20593;-56
2022/09/22 04:53:29;;;;;;;9.65;4.00;;;7.90;99.90;;;;;;5017411;28;20034;-57
2022/09/22 04:55:55;;;;;;;6.47;4.03;;;8.00;99.90;;;;;;5021362;28;20071;-58
2022/09/22 04:58:20;;;;;;;5.20;3.40;;;7.90;99.90;;;;;;5029365;28;20340;-57
2022/09/22 05:00:47;;;;;;;10.55;4.75;;;7.80;99.90;;;;;;5027937;28;20029;-57
2022/09/22 05:03:13;;;;;;;6.82;4.00;;;7.70;99.90;;;;;;5028924;28;20013;-57
2022/09/22 05:05:38;;;;;;;5.55;3.95;;;7.70;99.90;;;;;;5019866;28;20574;-57
2022/09/22 05:08:04;;;;;;;10.30;4.50;;;7.80;99.90;;;;;;5008197;28;20022;-57
2022/09/22 05:10:33;;;;;;;12.75;4.60;;;7.80;99.90;;;;;;5008324;28;20061;-55
2022/09/22 05:12:58;;;;;;;7.68;3.67;;;7.80;99.90;;;;;;5007521;28;20025;-57
2022/09/22 05:15:24;;;;;;;7.85;3.70;;;7.80;99.90;;;;;;5009330;28;20032;-57
2022/09/22 05:17:51;;;;;;;8.65;4.47;;;7.80;99.90;;;;;;4991423;28;20029;-57
2022/09/22 05:20:19;;;;;;;7.45;4.00;;;7.70;99.90;;;;;;5009266;28;20038;-57
2022/09/22 05:22:44;;;;;;;8.68;4.32;;;7.70;99.90;;;;;;5007423;28;20081;-56
2022/09/22 05:25:13;;;;;;;11.32;5.03;;;7.70;99.90;;;;;;5008371;28;20487;-56
2022/09/22 05:27:46;;;;;;;8.63;4.10;;;7.70;99.90;;;;;;5009321;28;20022;-56
2022/09/22 05:30:12;;;;;;;7.68;3.83;;;7.70;99.90;;;;;;5009077;28;20062;-56
2022/09/22 05:32:41;;;;;;;10.13;4.35;;;7.70;99.90;;;;;;5008992;28;20066;-57
2022/09/22 05:35:07;;;;;;;6.47;4.00;;;7.70;99.90;;;;;;5007439;28;20029;-57
2022/09/22 05:37:33;;;;;;;7.57;4.00;;;7.70;99.90;;;;;;5008144;28;20029;-57
2022/09/22 05:39:58;;;;;;;12.82;4.60;;;7.70;99.90;;;;;;5008083;28;20053;-57
2022/09/22 05:42:24;;;;;;;7.60;4.32;;;7.60;99.90;;;;;;5006990;28;20346;-57
2022/09/22 05:44:49;;;;;;;6.00;3.97;;;7.60;99.90;;;;;;5007287;28;20030;-57
2022/09/22 05:47:14;;;;;;;10.88;4.35;;;7.60;99.90;;;;;;5013284;28;20405;-57
2022/09/22 05:49:41;;;;;;;8.43;4.47;;;7.60;99.90;;;;;;5017504;28;20037;-58
2022/09/22 05:52:07;;;;;;;8.23;4.32;;;7.70;99.90;;;;;;5016020;28;20052;-57
2022/09/22 05:54:32;;;;;;;12.45;4.20;;;7.70;99.90;;;;;;5024935;28;20100;-57
2022/09/22 05:56:58;;;;;;;8.07;4.22;;;7.70;99.90;;;;;;5010240;28;20026;-57
2022/09/22 05:59:23;;;;;;;6.85;4.10;;;7.70;99.90;;;;;;5008131;28;20022;-57
2022/09/22 06:01:49;;;;;;;7.47;4.57;;;7.70;99.90;;;;;;5018818;28;20575;-58
2022/09/22 06:04:14;;;;;;;10.85;8.38;;;7.70;99.90;;;;;;5026689;28;20028;-58
2022/09/22 06:06:40;;;;;;;13.55;6.90;;;7.70;99.90;;;;;;5023257;28;20032;-58
2022/09/22 06:09:06;;;;;;;8.52;5.50;;;7.80;99.90;;;;;;5022777;28;20026;-58
2022/09/22 06:11:31;;;;;;;16.13;5.57;;;7.80;99.90;;;;;;5021125;28;20088;-58
2022/09/22 06:13:57;;;;;;;9.55;5.28;;;7.80;99.90;;;;;;5017857;28;20017;-58
2022/09/22 06:16:22;;;;;;;6.90;4.85;;;7.90;99.90;;;;;;5023313;28;20107;-58
2022/09/22 06:18:48;;;;;;;10.32;4.72;;;8.00;99.90;;;;;;5032197;28;20040;-58
2022/09/22 06:21:15;;;;;;;11.63;5.07;;;8.00;99.90;;;;;;5032678;28;20414;-58
2022/09/22 06:23:41;;;;;;;8.80;4.40;;;8.10;99.90;;;;;;5030510;28;20495;-58
2022/09/22 06:26:07;;;;;;;12.73;4.82;;;8.10;99.90;;;;;;5031021;28;20061;-58
2022/09/22 06:28:32;;;;;;;9.07;5.22;;;8.10;99.90;;;;;;5032412;28;20069;-58
2022/09/22 06:30:59;;;;;;;11.00;5.18;;;8.20;99.90;;;;;;5032094;28;20100;-58
2022/09/22 06:33:26;;;;;;;9.07;4.38;;;8.20;99.90;;;;;;5031225;28;20157;-58
2022/09/22 06:35:51;;;;;;;12.68;5.15;;;8.30;99.90;;;;;;5031411;28;20032;-57
2022/09/22 06:38:17;;;;;;;11.80;5.10;;;8.30;99.90;;;;;;5031533;28;20025;-58
2022/09/22 06:40:43;;;;;;;15.30;6.07;;;8.40;99.90;;;;;;5031687;28;20056;-58
2022/09/22 06:43:21;;;;;;;9.95;5.32;;;8.50;99.90;;;;;;5032351;28;20030;-58
2022/09/22 06:45:48;;;;;;;6.68;4.85;;;8.50;99.90;;;;;;5032610;28;20025;-58
2022/09/22 06:48:13;;;;;;;8.32;5.05;;;8.60;99.90;;;;;;5027472;28;20105;-57
2022/09/22 06:50:39;;;;;;;7.38;4.15;;;8.70;99.90;;;;;;5013311;28;20097;-58
2022/09/22 06:53:06;;;;;;;9.55;4.90;;;8.80;99.90;;;;;;5012986;28;20409;-58
2022/09/22 06:55:32;;;;;;;12.00;4.95;;;8.80;99.90;;;;;;5013217;28;20495;-57
2022/09/22 06:57:58;;;;;;;7.72;4.05;;;8.90;99.90;;;;;;5012733;28;20037;-58
2022/09/22 07:00:30;;;;;;;6.05;4.35;;;8.90;99.90;;;;;;5011442;28;20026;-57
2022/09/22 07:03:07;;;;;;;9.68;4.60;;;9.00;99.90;;;;;;5012249;28;20061;-58
2022/09/22 07:05:34;;;;;;;13.02;4.90;;;9.10;99.90;;;;;;5028476;28;20056;-58
2022/09/22 07:08:00;;;;;;;13.70;5.30;;;9.20;99.90;;;;;;5021563;28;20033;-58
2022/09/22 07:10:25;;;;;;;11.55;4.45;;;9.20;99.90;;;;;;5011823;28;20034;-58
2022/09/22 07:12:51;;;;;;;7.70;4.25;;;9.30;99.90;;;;;;5012389;28;20188;-58
2022/09/22 07:15:16;;;;;;;7.72;4.55;;;9.40;99.90;;;;;;5012989;28;20038;-58
2022/09/22 07:17:42;;;;;;;11.52;4.82;;;9.50;99.90;;;;;;5014662;28;20034;-59
2022/09/22 07:20:07;;;;;;;17.38;6.45;;;9.50;99.90;;;;;;5026915;28;20720;-58
2022/09/22 07:22:38;;;;;;;13.25;6.40;;;9.60;99.90;;;;;;5022234;28;20024;-58
2022/09/22 07:25:05;;;;;;;14.38;5.38;;;9.70;99.90;;;;;;5018678;28;20077;-58
2022/09/22 07:27:31;;;;;;;19.67;5.95;;;9.80;99.90;;;;;;5012614;28;20109;-58
2022/09/22 07:29:56;;;;;;;15.52;5.78;;;9.90;99.90;;;;;;5012627;28;20109;-58
2022/09/22 07:32:22;;;;;;;9.10;5.13;;;10.00;99.90;;;;;;5012197;28;20487;-58
2022/09/22 07:34:48;;;;;;;10.57;5.28;;;10.10;99.90;;;;;;5012581;28;20472;-58
2022/09/22 07:37:14;;;;;;;8.50;5.03;;;10.20;99.90;;;;;;5012125;28;20416;-58
2022/09/22 07:39:42;;;;;;;11.75;4.00;;;10.30;99.90;;;;;;5012362;28;20038;-58
2022/09/22 07:42:07;;;;;;;7.50;4.20;;;10.40;99.90;;;;;;5012426;28;20018;-58
2022/09/22 07:48:34;;;;;;;10.15;4.38;;;10.60;99.90;;;;;;5012417;28;20569;-58
2022/09/22 07:50:03;;;;;;;8.25;3.70;;;10.60;99.90;;;;;;5012222;28;20038;-58
2022/09/22 07:52:29;;;;;;;5.93;3.40;;;10.80;99.90;;;;;;5011875;28;20025;-58
2022/09/22 07:54:54;;;;;;;16.58;5.05;;;10.90;99.90;;;;;;5012283;28;20030;-59
2022/09/22 07:57:20;;;;;;;8.45;4.32;;;11.00;99.90;;;;;;5012349;28;20026;-58
2022/09/22 07:59:45;;;;;;;7.45;3.40;;;11.10;99.90;;;;;;5012233;28;20485;-58
2022/09/22 08:02:10;;;;;;;9.50;4.10;;;11.20;99.90;;;;;;5012071;28;20071;-58
2022/09/22 08:04:36;;;;;;;12.48;4.35;;;11.40;99.90;;;;;;5012063;28;20034;-57
2022/09/22 08:07:01;;;;;;;9.63;4.20;;;11.60;99.90;;;;;;5012009;28;20030;-58
2022/09/22 08:09:28;;;;;;;8.85;3.75;;;11.80;99.90;;;;;;5011919;28;20040;-58
2022/09/22 08:11:54;;;;;;;9.43;4.15;;;11.90;99.90;;;;;;5011352;28;20018;-58
2022/09/22 08:14:22;;;;;;;6.22;3.92;;;12.20;99.90;;;;;;5011464;28;20499;-58
2022/09/22 08:16:50;;;;;;;8.82;3.47;;;13.30;99.90;;;;;;5011833;28;20058;-58
2022/09/22 08:19:17;;;;;;;8.73;2.95;;;14.90;99.90;;;;;;5010396;28;20237;-59
2022/09/22 08:21:44;;;;;;;6.20;3.00;;;16.90;99.90;;;;;;5011807;28;20100;-59
2022/09/22 08:24:12;;;;;;;3.83;2.70;;;18.50;99.90;;;;;;5011363;28;20053;-59
2022/09/22 08:26:39;;;;;;;3.95;1.83;;;20.20;96.30;;;;;;5010403;28;20478;-59
2022/09/22 08:29:06;;;;;;;2.40;1.75;;;21.50;92.40;;;;;;5011628;28;20471;-59
2022/09/22 08:31:32;;;;;;;3.33;1.85;;;22.50;90.50;;;;;;5011505;28;20505;-59
2022/09/22 08:33:57;;;;;;;3.55;1.92;;;23.60;83.10;;;;;;5011312;28;20097;-59
2022/09/22 08:36:26;;;;;;;4.47;2.10;;;24.50;76.10;;;;;;5011577;28;20018;-59
2022/09/22 08:38:53;;;;;;;6.03;2.20;;;24.60;72.40;;;;;;5011701;28;20033;-60
2022/09/22 08:41:30;;;;;;;4.13;2.33;;;25.40;72.30;;;;;;5011372;28;20022;-59
2022/09/22 08:44:22;;;;;;;3.00;1.80;;;26.30;70.00;;;;;;5010995;28;20053;-59
2022/09/22 08:46:48;;;;;;;4.32;2.13;;;26.60;65.20;;;;;;5015416;28;20041;-60
2022/09/22 08:52:08;;;;;;;2.92;1.60;;;27.80;64.00;;;;;;5024416;28;20041;-59
2022/09/22 08:54:34;;;;;;;4.25;1.92;;;28.70;58.50;;;;;;5030466;28;20029;-59
2022/09/22 08:57:14;;;;;;;3.30;1.30;;;29.30;58.10;;;;;;5030925;28;20541;-59
2022/09/22 08:59:41;;;;;;;3.28;1.50;;;28.70;58.40;;;;;;5030575;28;20025;-59
2022/09/22 09:02:43;;;;;;;3.22;1.52;;;29.10;56.20;;;;;;5031041;28;20037;-59
2022/09/22 09:05:23;;;;;;;2.60;1.50;;;29.60;56.50;;;;;;5027568;28;20101;-60
2022/09/22 09:07:59;;;;;;;3.08;1.40;;;29.50;55.00;;;;;;5030177;28;20032;-60
2022/09/22 09:11:01;;;;;;;3.95;1.40;;;29.40;56.30;;;;;;5020536;28;20105;-60
2022/09/22 09:14:20;;;;;;;4.15;1.30;;;29.70;56.30;;;;;;5017370;28;20495;-59
2022/09/22 09:17:10;;;;;;;2.75;1.67;;;30.60;54.90;;;;;;5013638;28;20029;-60
2022/09/22 09:19:43;;;;;;;3.70;1.10;;;31.70;50.30;;;;;;5011090;28;20034;-59
2022/09/22 09:22:17;;;;;;;1.48;1.00;;;32.10;49.90;;;;;;5011120;28;20025;-59
2022/09/22 09:24:48;;;;;;;3.22;1.20;;;31.10;53.80;;;;;;5013292;28;20435;-60
2022/09/22 09:27:20;;;;;;;1.50;1.30;;;31.20;52.70;;;;;;5025335;28;20155;-59
2022/09/22 09:29:59;;;;;;;2.10;1.58;;;31.00;54.10;;;;;;5028585;28;20036;-59
2022/09/22 09:32:35;;;;;;;1.20;1.10;;;31.80;51.30;;;;;;5020209;28;20113;-59
2022/09/22 09:35:01;;;;;;;1.15;1.05;;;31.70;49.10;;;;;;5021291;28;20116;-59
2022/09/22 09:37:28;;;;;;;1.02;0.70;;;31.20;49.90;;;;;;5020777;28;20037;-59
2022/09/22 09:39:55;;;;;;;1.42;0.90;;;31.30;47.70;;;;;;5018913;28;20029;-59
2022/09/22 09:42:25;;;;;;;2.13;0.75;;;31.60;48.90;;;;;;5022828;28;20029;-59
2022/09/22 09:44:52;;;;;;;0.98;0.60;;;31.30;47.70;;;;;;5026604;28;20112;-59
2022/09/22 09:47:32;;;;;;;1.88;0.90;;;33.10;44.80;;;;;;5026713;28;20101;-59
2022/09/22 09:49:58;;;;;;;0.90;0.70;;;31.80;42.40;;;;;;5026438;28;20119;-59
2022/09/22 09:52:26;;;;;;;1.25;0.60;;;29.50;45.40;;;;;;5025894;28;20075;-59
2022/09/22 09:54:53;;;;;;;1.65;0.63;;;29.00;47.40;;;;;;5022120;28;20034;-59
2022/09/22 09:57:20;;;;;;;0.85;0.50;;;28.50;47.70;;;;;;5015639;28;20029;-59
2022/09/22 10:00:30;;;;;;;1.33;0.68;;;30.10;47.70;;;;;;5024813;28;20557;-60
2022/09/22 10:03:04;;;;;;;1.52;0.77;;;29.40;47.70;;;;;;5026124;28;20014;-59
2022/09/22 10:05:32;;;;;;;1.88;0.77;;;30.50;47.00;;;;;;5027468;28;20028;-59
2022/09/22 10:08:02;;;;;;;1.40;0.80;;;30.20;46.00;;;;;;5024633;28;20514;-60
2022/09/22 10:10:27;;;;;;;2.45;0.80;;;29.80;47.70;;;;;;5020120;28;20033;-59
2022/09/22 10:13:14;;;;;;;0.55;0.47;;;29.70;47.90;;;;;;5025215;28;20029;-59
2022/09/22 10:15:41;;;;;;;0.80;0.80;;;30.80;49.90;;;;;;5022305;28;20072;-59
2022/09/22 10:18:39;;;;;;;1.10;0.80;;;32.00;47.40;;;;;;5026040;28;20053;-59
2022/09/22 10:21:14;;;;;;;1.83;1.08;;;32.90;47.10;;;;;;5007959;28;20092;-59
2022/09/22 10:23:41;;;;;;;1.88;0.73;;;33.10;43.50;;;;;;5025979;28;20030;-59
2022/09/22 10:26:30;;;;;;;1.15;0.60;;;30.90;47.40;;;;;;5034650;28;20028;-59
2022/09/22 10:29:18;;;;;;;1.98;0.95;;;30.50;47.70;;;;;;5028047;28;20056;-59
2022/09/22 10:32:04;;;;;;;1.50;0.60;;;31.50;45.10;;;;;;5014017;28;20426;-59
2022/09/22 10:34:38;;;;;;;1.75;1.05;;;32.10;44.90;;;;;;5019960;28;20411;-59
2022/09/22 10:37:15;;;;;;;0.75;0.75;;;32.00;44.60;;;;;;5034369;28;20048;-59
2022/09/22 10:39:48;;;;;;;3.17;1.42;;;32.00;46.90;;;;;;5033679;28;20051;-58
2022/09/22 10:42:42;;;;;;;1.25;0.77;;;31.20;45.20;;;;;;5036586;28;20108;-57
2022/09/22 10:45:17;;;;;;;7.63;1.58;;;29.80;46.80;;;;;;5036407;28;20026;-57
2022/09/22 10:47:59;;;;;;;1.30;1.00;;;28.70;48.70;;;;;;5036554;28;20475;-57
2022/09/22 10:50:40;;;;;;;1.77;1.20;;;29.40;51.50;;;;;;5036264;28;20196;-56
2022/09/22 10:53:14;;;;;;;2.50;1.00;;;30.00;48.40;;;;;;5035111;28;20090;-57
2022/09/22 10:56:00;;;;;;;1.17;0.68;;;30.70;48.30;;;;;;5031930;28;20553;-57
2022/09/22 10:58:39;;;;;;;0.85;0.70;;;31.10;49.10;;;;;;5033169;28;20025;-57
2022/09/22 11:01:41;;;;;;;2.70;0.70;;;31.70;49.70;;;;;;5033196;28;20025;-58
2022/09/22 11:04:24;;;;;;;0.90;0.90;;;31.90;45.30;;;;;;5031162;28;20483;-58
2022/09/22 11:12:55;;;;;;;1.13;0.75;;;28.60;46.40;;;;;;5032468;28;20185;-57
2022/09/22 11:15:39;;;;;;;1.02;0.70;;;27.00;48.10;;;;;;5032880;28;20029;-57
2022/09/22 11:18:30;;;;;;;2.28;0.65;;;25.30;49.90;;;;;;5032573;28;20033;-57
2022/09/22 11:21:21;;;;;;;0.57;0.57;;;24.40;52.80;;;;;;5031022;28;20041;-57
2022/09/22 11:24:05;;;;;;;0.60;0.60;;;24.20;53.60;;;;;;5032471;28;20230;-57
2022/09/22 11:26:31;;;;;;;1.88;0.70;;;23.80;53.70;;;;;;5015155;28;20422;-57
2022/09/22 11:29:10;;;;;;;1.83;0.65;;;23.10;55.80;;;;;;5032916;28;20037;-58
2022/09/22 11:31:48;;;;;;;2.30;0.83;;;22.70;57.30;;;;;;5032681;28;20052;-58
2022/09/22 11:34:29;;;;;;;1.90;0.82;;;22.10;57.60;;;;;;5032082;28;20025;-58
2022/09/22 11:37:28;;;;;;;2.28;0.73;;;21.80;61.20;;;;;;5032274;28;20495;-58
2022/09/22 11:40:31;;;;;;;1.50;0.73;;;21.30;62.50;;;;;;5032315;28;20498;-58
2022/09/22 11:43:34;;;;;;;4.13;0.98;;;20.90;63.40;;;;;;5031863;28;20033;-57
2022/09/22 11:46:20;;;;;;;1.23;0.90;;;20.60;65.60;;;;;;5031920;28;20472;-57
2022/09/22 11:49:06;;;;;;;1.25;0.85;;;20.40;66.30;;;;;;5031854;28;20091;-59
2022/09/22 11:51:45;;;;;;;3.53;1.30;;;20.20;68.10;;;;;;5031764;28;20037;-58
2022/09/22 11:54:24;;;;;;;2.20;1.13;;;20.10;69.60;;;;;;5031663;28;20366;-57
2022/09/22 11:56:55;;;;;;;1.23;0.93;;;20.10;69.20;;;;;;5032035;28;20030;-57
2022/09/22 11:59:49;;;;;;;2.47;0.73;;;20.00;70.20;;;;;;5031972;28;20032;-57
2022/09/22 12:02:16;;;;;;;1.85;0.90;;;20.00;70.50;;;;;;5031990;28;20407;-57
2022/09/22 12:04:48;;;;;;;1.85;1.48;;;19.90;70.80;;;;;;5031341;28;20022;-57
2022/09/22 12:07:23;;;;;;;1.83;0.93;;;20.00;71.70;;;;;;5032027;28;20033;-57
2022/09/22 12:10:00;;;;;;;2.08;0.90;;;20.10;69.10;;;;;;5032166;28;20026;-57
2022/09/22 12:12:29;;;;;;;1.63;0.80;;;20.10;69.50;;;;;;5031470;28;20104;-57
2022/09/22 12:15:19;;;;;;;1.25;0.93;;;20.20;68.30;;;;;;5030882;28;20552;-57
2022/09/22 12:17:54;;;;;;;1.70;1.10;;;20.20;68.40;;;;;;5030522;28;20038;-57
2022/09/22 12:20:32;;;;;;;1.77;0.90;;;20.20;68.70;;;;;;5030342;28;20034;-57
2022/09/22 12:23:06;;;;;;;1.05;0.80;;;20.10;68.20;;;;;;5030998;28;20029;-57
2022/09/22 12:25:54;;;;;;;1.15;0.98;;;20.10;69.10;;;;;;5031462;28;20482;-57
2022/09/22 12:28:25;;;;;;;5.20;0.98;;;20.10;68.50;;;;;;5031409;28;20030;-57
2022/09/22 12:31:01;;;;;;;2.67;1.20;;;20.30;70.50;;;;;;5031402;28;20025;-57
2022/09/22 12:33:27;;;;;;;1.75;0.80;;;20.40;67.90;;;;;;5030830;28;20103;-57
2022/09/22 12:35:54;;;;;;;0.80;0.75;;;20.50;67.90;;;;;;5031307;28;20033;-57
2022/09/22 12:38:21;;;;;;;2.05;1.17;;;20.60;68.40;;;;;;5031465;28;20079;-57
2022/09/22 12:40:49;;;;;;;1.50;0.80;;;20.70;69.00;;;;;;5031288;28;20108;-58
2022/09/22 12:43:18;;;;;;;2.25;0.98;;;20.90;68.60;;;;;;5030658;28;20061;-57
2022/09/22 12:45:44;;;;;;;1.55;1.15;;;21.20;66.60;;;;;;5031018;28;20032;-58
2022/09/22 12:48:32;;;;;;;4.35;1.17;;;21.30;66.20;;;;;;5031110;28;20029;-57
2022/09/22 12:51:30;;;;;;;2.38;0.82;;;21.40;65.60;;;;;;5029772;28;20102;-57
2022/09/22 12:54:20;;;;;;;0.90;0.60;;;21.20;65.60;;;;;;5030962;28;20026;-57
2022/09/22 12:57:01;;;;;;;1.88;0.68;;;21.10;66.00;;;;;;5031216;28;20116;-58
2022/09/22 12:59:39;;;;;;;3.10;0.90;;;20.70;64.60;;;;;;5031370;28;20368;-57
2022/09/22 13:02:16;;;;;;;2.75;0.70;;;20.90;65.60;;;;;;5031206;28;20030;-57
2022/09/22 13:04:48;;;;;;;0.80;0.60;;;20.60;65.90;;;;;;5030977;28;20029;-57
2022/09/22 13:07:34;;;;;;;2.55;0.82;;;20.30;66.00;;;;;;5031006;28;20475;-57
2022/09/22 13:15:28;;;;;;;;;;;19.70;68.70;;;;;;5031444;28;20414;-57
2022/09/22 13:17:53;;;;;;;1.25;0.90;;;19.40;69.50;;;;;;5030340;28;19915;-57
2022/09/22 13:20:39;;;;;;;1.15;0.90;;;19.30;70.30;;;;;;5030718;28;20060;-57
2022/09/22 13:23:11;;;;;;;1.65;0.70;;;19.20;69.70;;;;;;5029913;28;20034;-57
2022/09/22 13:25:38;;;;;;;0.70;0.70;;;19.10;71.50;;;;;;5030556;28;20104;-57
2022/09/22 13:28:12;;;;;;;1.52;1.10;;;19.00;69.90;;;;;;5030458;28;20027;-57
2022/09/22 13:30:40;;;;;;;1.00;0.93;;;18.90;69.80;;;;;;5028989;28;20026;-57
2022/09/22 13:33:21;;;;;;;2.38;0.90;;;18.90;70.90;;;;;;5029852;28;20053;-57